createdAt,value
2024-05-09T00:01:38.808Z,15.43
2024-05-09T00:04:10.009Z,17.92
2024-05-09T00:06:39.936Z,17.77
2024-05-09T00:09:12.935Z,15.30
2024-05-09T00:11:45.782Z,18.70
2024-05-09T00:14:15.873Z,18.08
2024-05-09T00:16:45.918Z,17.95
2024-05-09T00:19:17.573Z,17.10
2024-05-09T00:21:47.539Z,16.98
2024-05-09T00:24:22.660Z,22.20
2024-05-09T00:26:52.428Z,17.88
2024-05-09T00:29:22.331Z,18.70
2024-05-09T00:31:52.830Z,20.85
2024-05-09T00:34:23.260Z,21.40
2024-05-09T00:36:54.152Z,21.60
2024-05-09T00:39:28.815Z,20.73
2024-05-09T00:41:59.756Z,22.38
2024-05-09T00:44:29.813Z,23.10
2024-05-09T00:46:59.843Z,24.10
2024-05-09T00:49:32.349Z,24.90
2024-05-09T00:52:03.422Z,19.23
2024-05-09T00:54:36.424Z,24.52
2024-05-09T00:57:07.422Z,18.10
2024-05-09T00:59:37.670Z,15.13
2024-05-09T01:02:09.664Z,17.15
2024-05-09T01:04:39.864Z,15.30
2024-05-09T01:07:11.371Z,16.37
2024-05-09T01:09:43.974Z,16.13
2024-05-09T01:12:14.068Z,17.83
2024-05-09T01:14:44.059Z,21.43
2024-05-09T01:17:14.316Z,26.23
2024-05-09T01:19:44.430Z,23.63
2024-05-09T01:22:14.399Z,27.50
2024-05-09T01:24:48.623Z,29.67
2024-05-09T01:27:20.675Z,27.47
2024-05-09T01:29:50.431Z,29.77
2024-05-09T01:32:20.292Z,28.27
2024-05-09T01:34:50.112Z,26.70
2024-05-09T01:37:19.910Z,25.70
2024-05-09T01:39:52.385Z,28.43
2024-05-09T01:42:22.178Z,26.77
2024-05-09T01:44:51.986Z,25.90
2024-05-09T01:47:22.049Z,27.83
2024-05-09T01:49:52.003Z,27.17
2024-05-09T01:52:21.899Z,28.07
2024-05-09T01:54:54.448Z,28.37
2024-05-09T01:57:24.271Z,27.25
2024-05-09T01:59:54.256Z,28.70
2024-05-09T02:02:24.125Z,27.03
2024-05-09T02:04:54.135Z,29.80
2024-05-09T02:07:23.989Z,27.27
2024-05-09T02:09:57.550Z,37.50
2024-05-09T02:12:27.434Z,28.88
2024-05-09T02:14:57.289Z,31.48
2024-05-09T02:17:27.599Z,26.65
2024-05-09T02:19:57.550Z,29.77
2024-05-09T02:22:27.438Z,26.98
2024-05-09T02:24:59.861Z,29.10
2024-05-09T02:27:29.683Z,27.47
2024-05-09T02:29:59.475Z,31.58
2024-05-09T02:32:29.407Z,31.90
2024-05-09T02:34:59.348Z,31.83
2024-05-09T02:37:26.549Z,27.00
2024-05-09T02:39:59.097Z,25.60
2024-05-09T02:42:26.205Z,28.40
2024-05-09T02:44:56.115Z,29.03
2024-05-09T02:47:23.467Z,27.90
2024-05-09T02:49:53.452Z,29.50
2024-05-09T02:52:20.682Z,27.38
2024-05-09T02:54:50.428Z,26.07
2024-05-09T02:57:20.279Z,26.30
2024-05-09T02:59:50.865Z,27.57
2024-05-09T03:02:18.156Z,24.58
2024-05-09T03:04:48.108Z,22.70
2024-05-09T03:07:15.266Z,27.03
2024-05-09T03:09:49.059Z,25.30
2024-05-09T03:12:16.301Z,21.80
2024-05-09T03:14:48.746Z,21.97
2024-05-09T03:17:16.004Z,22.83
2024-05-09T03:20:06.961Z,25.57
2024-05-09T03:22:36.196Z,21.90
2024-05-09T03:25:06.055Z,20.27
2024-05-09T03:27:33.280Z,25.93
2024-05-09T03:30:07.518Z,15.90
2024-05-09T03:32:34.896Z,19.33
2024-05-09T03:35:04.823Z,22.73
2024-05-09T03:37:34.699Z,22.33
2024-05-09T03:40:09.181Z,24.70
2024-05-09T03:42:41.994Z,23.47
2024-05-09T03:45:14.479Z,24.92
2024-05-09T03:47:42.334Z,24.93
2024-05-09T03:50:18.494Z,27.03
2024-05-09T03:52:53.189Z,26.87
2024-05-09T03:55:23.057Z,25.97
2024-05-09T03:57:50.265Z,28.63
2024-05-09T04:00:31.067Z,26.27
2024-05-09T04:03:06.679Z,29.53
2024-05-09T04:05:40.001Z,27.97
2024-05-09T04:08:10.103Z,27.87
2024-05-09T04:10:40.372Z,30.70
2024-05-09T04:13:07.915Z,29.37
2024-05-09T04:15:40.572Z,28.87
2024-05-09T04:18:07.992Z,28.60
2024-05-09T04:20:40.428Z,27.07
2024-05-09T04:23:12.602Z,26.87
2024-05-09T04:25:45.795Z,28.27
2024-05-09T04:28:13.468Z,26.20
2024-05-09T04:30:46.785Z,26.37
2024-05-09T04:33:15.766Z,28.27
2024-05-09T04:35:46.105Z,28.45
2024-05-09T04:38:14.566Z,32.83
2024-05-09T04:40:45.242Z,32.23
2024-05-09T04:43:15.826Z,32.03
2024-05-09T04:45:48.501Z,30.13
2024-05-09T04:48:16.833Z,29.70
2024-05-09T04:50:47.551Z,32.77
2024-05-09T04:53:16.678Z,31.33
2024-05-09T04:55:46.792Z,28.77
2024-05-09T04:58:14.265Z,32.03
2024-05-09T05:00:44.169Z,31.90
2024-05-09T05:03:15.855Z,31.40
2024-05-09T05:05:47.181Z,34.90
2024-05-09T05:08:15.383Z,34.00
2024-05-09T05:10:46.630Z,33.22
2024-05-09T05:13:20.748Z,30.27
2024-05-09T05:15:53.611Z,27.47
2024-05-09T05:18:24.249Z,29.48
2024-05-09T05:20:54.606Z,27.15
2024-05-09T05:23:25.541Z,30.92
2024-05-09T05:25:56.034Z,28.33
2024-05-09T05:28:23.580Z,24.55
2024-05-09T05:30:53.516Z,27.17
2024-05-09T05:33:26.292Z,26.75
2024-05-09T05:35:55.901Z,24.55
2024-05-09T05:38:28.201Z,24.27
2024-05-09T05:40:56.351Z,28.40
2024-05-09T05:43:26.233Z,28.52
2024-05-09T05:45:54.964Z,29.17
2024-05-09T05:48:27.687Z,26.77
2024-05-09T05:50:54.962Z,28.98
2024-05-09T05:53:24.737Z,23.27
2024-05-09T05:55:52.044Z,24.35
2024-05-09T05:58:22.616Z,31.13
2024-05-09T06:00:53.312Z,26.38
2024-05-09T06:03:23.290Z,25.85
2024-05-09T06:05:53.255Z,22.42
2024-05-09T06:08:23.758Z,28.88
2024-05-09T06:10:52.033Z,29.33
2024-05-09T06:13:21.975Z,25.98
2024-05-09T06:15:51.573Z,32.47
2024-05-09T06:18:21.901Z,24.23
2024-05-09T06:20:49.328Z,24.58
2024-05-09T06:23:22.120Z,22.00
2024-05-09T06:25:51.077Z,20.00
2024-05-09T06:28:20.897Z,21.40
2024-05-09T06:30:48.044Z,29.55
2024-05-09T06:33:18.123Z,27.35
2024-05-09T06:35:46.449Z,18.45
2024-05-09T06:38:16.457Z,19.70
2024-05-09T06:40:46.411Z,15.27
2024-05-09T06:43:18.699Z,18.38
2024-05-09T06:45:47.885Z,14.10
2024-05-09T06:48:20.647Z,12.43
2024-05-09T06:50:48.513Z,13.80
2024-05-09T06:53:19.647Z,17.90
2024-05-09T06:55:49.927Z,16.42
2024-05-09T06:58:19.975Z,19.60
2024-05-09T07:00:47.245Z,20.20
2024-05-09T07:03:19.182Z,19.67
2024-05-09T07:05:48.661Z,20.88
2024-05-09T07:08:19.684Z,21.60
2024-05-09T07:10:50.214Z,19.35
2024-05-09T07:13:20.261Z,20.85
2024-05-09T07:15:47.409Z,24.55
2024-05-09T07:18:20.257Z,22.90
2024-05-09T07:20:50.740Z,22.88
2024-05-09T07:23:21.262Z,20.38
2024-05-09T07:25:51.182Z,24.33
2024-05-09T07:28:22.608Z,25.73
2024-05-09T07:30:49.736Z,25.85
2024-05-09T07:33:22.098Z,27.77
2024-05-09T07:35:50.818Z,29.90
2024-05-09T07:38:20.867Z,28.40
2024-05-09T07:40:53.462Z,27.02
2024-05-09T07:43:20.686Z,30.73
2024-05-09T07:45:54.096Z,29.88
2024-05-09T07:52:45.965Z,34.35
2024-05-09T07:53:48.837Z,32.95
2024-05-09T07:56:25.440Z,32.85
2024-05-09T07:58:53.836Z,36.15
2024-05-09T08:01:25.796Z,29.30
2024-05-09T08:03:53.933Z,33.35
2024-05-09T08:06:23.837Z,33.60
2024-05-09T08:08:51.050Z,39.47
2024-05-09T08:11:20.920Z,38.28
2024-05-09T08:13:50.878Z,33.55
2024-05-09T08:16:20.809Z,34.35
2024-05-09T08:18:48.161Z,45.55
2024-05-09T08:21:19.405Z,28.45
2024-05-09T08:23:46.590Z,25.95
2024-05-09T08:26:16.361Z,35.00
2024-05-09T08:28:43.488Z,31.17
2024-05-09T08:31:16.179Z,26.58
2024-05-09T08:33:47.795Z,25.85
2024-05-09T08:36:17.945Z,28.63
2024-05-09T08:38:45.127Z,29.63
2024-05-09T08:41:17.319Z,29.58
2024-05-09T08:43:44.928Z,27.13
2024-05-09T08:46:19.186Z,28.35
2024-05-09T08:48:49.937Z,28.85
2024-05-09T08:51:20.032Z,19.38
2024-05-09T08:53:47.313Z,17.63
2024-05-09T08:56:19.140Z,16.27
2024-05-09T08:58:48.218Z,16.37
2024-05-09T09:01:21.854Z,20.30
2024-05-09T09:03:51.746Z,23.92
2024-05-09T09:06:24.634Z,18.45
2024-05-09T09:08:53.397Z,17.58
2024-05-09T09:11:23.241Z,18.60
2024-05-09T09:13:50.475Z,21.23
2024-05-09T09:16:23.363Z,18.88
2024-05-09T09:18:53.568Z,23.63
2024-05-09T09:21:23.387Z,22.63
2024-05-09T09:23:50.537Z,17.23
2024-05-09T09:26:20.893Z,17.45
2024-05-09T09:28:48.084Z,15.43
2024-05-09T09:31:22.678Z,17.23
2024-05-09T09:33:50.152Z,19.05
2024-05-09T09:36:19.992Z,18.95
2024-05-09T09:38:48.127Z,20.88
2024-05-09T09:41:20.931Z,16.25
2024-05-09T09:43:48.593Z,18.92
2024-05-09T09:46:21.318Z,17.55
2024-05-09T09:48:52.042Z,17.63
2024-05-09T09:51:22.831Z,20.30
2024-05-09T09:53:52.817Z,15.32
2024-05-09T09:56:24.086Z,18.90
2024-05-09T09:58:53.293Z,17.85
2024-05-09T10:01:23.204Z,20.13
2024-05-09T10:03:54.008Z,19.42
2024-05-09T10:06:25.840Z,22.85
2024-05-09T10:08:54.329Z,18.63
2024-05-09T10:11:39.466Z,20.48
2024-05-09T10:14:09.254Z,19.60
2024-05-09T10:16:45.728Z,19.85
2024-05-09T10:19:26.429Z,20.45
2024-05-09T10:22:04.646Z,18.67
2024-05-09T10:24:47.467Z,20.17
2024-05-09T10:27:17.413Z,25.35
2024-05-09T10:29:54.174Z,25.85
2024-05-09T10:32:24.125Z,27.40
2024-05-09T10:35:07.663Z,23.40
2024-05-09T10:37:38.295Z,24.48
2024-05-09T10:40:13.972Z,24.58
2024-05-09T10:42:47.728Z,22.83
2024-05-09T10:45:16.599Z,25.92
2024-05-09T10:47:46.657Z,23.42
2024-05-09T10:50:22.653Z,27.27
2024-05-09T10:52:58.539Z,27.10
2024-05-09T10:55:25.985Z,24.05
2024-05-09T10:57:55.866Z,25.88
2024-05-09T11:00:29.969Z,27.08
2024-05-09T11:03:03.819Z,27.15
2024-05-09T11:05:34.919Z,23.55
2024-05-09T11:08:05.282Z,26.75
2024-05-09T11:10:34.376Z,27.70
2024-05-09T11:13:04.638Z,27.70
2024-05-09T11:15:38.729Z,26.02
2024-05-09T11:18:09.104Z,28.70
2024-05-09T11:20:39.157Z,30.88
2024-05-09T11:23:09.538Z,30.70
2024-05-09T11:25:36.832Z,27.88
2024-05-09T11:28:07.464Z,23.98
2024-05-09T11:30:35.560Z,24.35
2024-05-09T11:33:05.869Z,18.00
2024-05-09T11:35:33.233Z,21.90
2024-05-09T11:38:06.092Z,20.75
2024-05-09T11:40:34.647Z,26.88
2024-05-09T11:43:04.739Z,17.25
2024-05-09T11:45:32.270Z,20.33
2024-05-09T11:48:02.692Z,19.67
2024-05-09T11:50:35.606Z,28.23
2024-05-09T11:53:09.535Z,18.60
2024-05-09T11:55:36.921Z,28.05
2024-05-09T11:58:08.440Z,17.05
2024-05-09T12:00:37.572Z,16.13
2024-05-09T12:03:08.633Z,20.48
2024-05-09T12:05:35.921Z,17.25
2024-05-09T12:08:09.629Z,16.65
2024-05-09T12:10:37.514Z,15.93
2024-05-09T12:13:08.133Z,13.45
2024-05-09T12:15:37.438Z,14.32
2024-05-09T12:18:09.165Z,9.00
2024-05-09T12:20:39.172Z,13.00
2024-05-09T12:23:12.749Z,10.02
2024-05-09T12:25:40.364Z,11.75
2024-05-09T12:28:10.779Z,14.68
2024-05-09T12:30:40.337Z,11.70
2024-05-09T12:33:12.907Z,13.35
2024-05-09T12:35:41.780Z,7.10
2024-05-09T12:38:15.780Z,8.65
2024-05-09T12:40:43.482Z,5.18
2024-05-09T12:43:13.531Z,7.15
2024-05-09T12:45:40.928Z,8.27
2024-05-09T12:48:12.265Z,6.40
2024-05-09T12:50:40.408Z,5.20
2024-05-09T12:53:10.506Z,4.80
2024-05-09T12:55:48.258Z,7.85
2024-05-09T12:58:24.753Z,8.85
2024-05-09T13:00:52.624Z,8.60
2024-05-09T13:03:22.912Z,7.28
2024-05-09T13:05:50.653Z,7.05
2024-05-09T13:08:21.006Z,7.57
2024-05-09T13:10:51.423Z,5.45
2024-05-09T13:13:21.389Z,8.48
2024-05-09T13:15:48.720Z,7.10
2024-05-09T13:18:18.787Z,8.98
2024-05-09T13:20:45.998Z,8.63
2024-05-09T13:23:15.822Z,6.88
2024-05-09T13:25:43.209Z,6.57
2024-05-09T13:28:15.748Z,19.50
2024-05-09T13:30:43.413Z,9.02
2024-05-09T13:33:14.442Z,6.13
2024-05-09T13:35:46.785Z,5.97
2024-05-09T13:38:20.043Z,9.40
2024-05-09T13:40:50.621Z,6.55
2024-05-09T13:43:24.126Z,11.75
2024-05-09T13:45:55.360Z,18.35
2024-05-09T13:48:25.619Z,12.43
2024-05-09T13:50:52.918Z,9.52
2024-05-09T13:53:22.797Z,10.15
2024-05-09T13:55:50.354Z,9.73
2024-05-09T13:58:20.661Z,13.88
2024-05-09T14:00:50.901Z,10.77
2024-05-09T14:03:22.098Z,10.27
2024-05-09T14:05:51.296Z,10.93
2024-05-09T14:08:22.837Z,7.75
2024-05-09T14:10:50.909Z,8.27
2024-05-09T14:13:20.963Z,10.13
2024-05-09T14:15:51.363Z,9.50
2024-05-09T14:18:21.448Z,10.95
2024-05-09T14:20:49.790Z,14.77
2024-05-09T14:23:20.969Z,9.02
2024-05-09T14:25:52.185Z,10.88
2024-05-09T14:28:23.061Z,11.15
2024-05-09T14:30:53.489Z,12.07
2024-05-09T14:33:26.833Z,9.48
2024-05-09T14:35:54.592Z,9.27
2024-05-09T14:38:32.124Z,7.88
2024-05-09T14:40:59.661Z,12.18
2024-05-09T14:43:29.774Z,16.00
2024-05-09T14:45:59.668Z,10.50
2024-05-09T14:48:30.139Z,7.70
2024-05-09T14:50:57.439Z,12.52
2024-05-09T14:53:28.399Z,10.25
2024-05-09T14:55:55.891Z,10.57
2024-05-09T14:58:26.622Z,9.10
2024-05-09T15:00:53.877Z,12.85
2024-05-09T15:03:26.507Z,9.45
2024-05-09T15:05:53.970Z,12.55
2024-05-09T15:08:24.001Z,9.70
2024-05-09T15:10:51.312Z,18.58
2024-05-09T15:13:21.618Z,16.67
2024-05-09T15:15:49.230Z,22.15
2024-05-09T15:18:19.483Z,14.55
2024-05-09T15:20:49.510Z,9.77
2024-05-09T15:23:19.751Z,10.55
2024-05-09T15:25:47.423Z,6.35
2024-05-09T15:28:17.680Z,10.93
2024-05-09T15:30:46.595Z,15.35
2024-05-09T15:33:17.729Z,7.13
2024-05-09T15:35:47.054Z,8.95
2024-05-09T15:38:20.209Z,9.13
2024-05-09T15:40:48.286Z,9.48
2024-05-09T15:43:18.486Z,9.32
2024-05-09T15:45:45.811Z,9.40
2024-05-09T15:48:15.993Z,15.75
2024-05-09T15:50:45.577Z,9.68
2024-05-09T15:53:15.709Z,7.50
2024-05-09T15:55:45.634Z,7.57
2024-05-09T15:58:16.190Z,10.60
2024-05-09T16:00:48.682Z,9.13
2024-05-09T16:03:21.409Z,11.68
2024-05-09T16:05:51.427Z,10.43
2024-05-09T16:08:21.383Z,12.35
2024-05-09T16:10:51.460Z,10.77
2024-05-09T16:13:22.105Z,13.50
2024-05-09T16:15:49.417Z,10.15
2024-05-09T16:18:19.745Z,8.90
2024-05-09T16:20:49.490Z,9.93
2024-05-09T16:23:21.762Z,12.80
2024-05-09T16:25:52.125Z,12.20
2024-05-09T16:28:23.892Z,11.77
2024-05-09T16:30:55.275Z,11.07
2024-05-09T16:33:26.731Z,11.68
2024-05-09T16:35:53.980Z,9.43
2024-05-09T16:38:23.846Z,8.90
2024-05-09T16:40:55.937Z,12.13
2024-05-09T16:43:26.073Z,11.68
2024-05-09T16:45:53.516Z,12.13
2024-05-09T16:48:25.612Z,24.63
2024-05-09T16:50:52.929Z,14.07
2024-05-09T16:53:23.412Z,11.80
2024-05-09T16:55:50.590Z,8.68
2024-05-09T16:58:23.346Z,10.48
2024-05-09T17:00:51.058Z,10.90
2024-05-09T17:03:21.605Z,7.63
2024-05-09T17:05:50.582Z,7.85
2024-05-09T17:08:20.694Z,9.95
2024-05-09T17:10:49.456Z,8.23
2024-05-09T17:13:23.015Z,13.40
2024-05-09T17:15:53.129Z,10.43
2024-05-09T17:18:23.237Z,12.73
2024-05-09T17:20:53.520Z,11.90
2024-05-09T17:23:20.683Z,13.30
2024-05-09T17:25:50.471Z,9.40
2024-05-09T17:28:20.656Z,8.43
2024-05-09T17:30:51.423Z,9.77
2024-05-09T17:33:18.945Z,11.20
2024-05-09T17:35:50.780Z,11.77
2024-05-09T17:38:20.412Z,8.02
2024-05-09T17:40:51.558Z,8.07
2024-05-09T17:43:21.767Z,7.90
2024-05-09T17:45:51.796Z,9.67
2024-05-09T17:48:19.506Z,9.07
2024-05-09T17:50:51.880Z,8.23
2024-05-09T17:53:20.321Z,9.33
2024-05-09T17:55:54.062Z,7.03
2024-05-09T17:58:24.093Z,8.20
2024-05-09T18:00:54.278Z,8.02
2024-05-09T18:03:23.394Z,8.43
2024-05-09T18:05:53.920Z,7.28
2024-05-09T18:08:21.282Z,9.67
2024-05-09T18:10:52.720Z,6.20
2024-05-09T18:13:24.149Z,6.70
2024-05-09T18:15:54.256Z,7.28
2024-05-09T18:18:21.631Z,7.23
2024-05-09T18:20:53.037Z,6.57
2024-05-09T18:23:20.235Z,8.70
2024-05-09T18:25:54.713Z,6.10
2024-05-09T18:28:25.056Z,7.30
2024-05-09T18:30:55.180Z,10.30
2024-05-09T18:33:23.559Z,7.87
2024-05-09T18:35:53.442Z,7.60
2024-05-09T18:38:26.891Z,7.13
2024-05-09T18:40:54.447Z,9.65
2024-05-09T18:43:28.950Z,9.50
2024-05-09T18:46:06.181Z,7.93
2024-05-09T18:48:36.668Z,8.27
2024-05-09T18:51:05.654Z,7.50
2024-05-09T18:53:35.493Z,6.27
2024-05-09T18:56:02.724Z,6.30
2024-05-09T18:58:32.519Z,8.60
2024-05-09T19:01:01.736Z,7.30
2024-05-09T19:03:35.528Z,9.33
2024-05-09T19:06:03.516Z,7.23
2024-05-09T19:08:33.731Z,8.93
2024-05-09T19:11:02.058Z,7.03
2024-05-09T19:13:32.108Z,10.07
2024-05-09T19:15:59.496Z,8.20
2024-05-09T19:18:30.913Z,9.13
2024-05-09T19:21:00.875Z,15.43
2024-05-09T19:23:35.177Z,7.63
2024-05-09T19:26:05.431Z,7.90
2024-05-09T19:28:35.271Z,9.37
2024-05-09T19:31:02.778Z,7.20
2024-05-09T19:33:32.752Z,7.30
2024-05-09T19:36:02.795Z,8.00
2024-05-09T19:38:32.783Z,8.63
2024-05-09T19:41:00.057Z,11.03
2024-05-09T19:43:32.274Z,11.97
2024-05-09T19:46:01.216Z,9.37
2024-05-09T19:48:31.371Z,9.77
2024-05-09T19:50:58.834Z,10.13
2024-05-09T19:53:31.573Z,9.93
2024-05-09T19:55:59.019Z,10.43
2024-05-09T19:58:28.947Z,7.80
2024-05-09T20:00:56.258Z,8.53
2024-05-09T20:03:26.152Z,8.03
2024-05-09T20:05:53.383Z,8.20
2024-05-09T20:08:23.242Z,9.80
2024-05-09T20:10:53.871Z,8.10
2024-05-09T20:13:24.050Z,9.13
2024-05-09T20:15:51.529Z,9.00
2024-05-09T20:18:21.351Z,13.57
2024-05-09T20:20:51.630Z,10.33
2024-05-09T20:23:23.129Z,10.33
2024-05-09T20:25:52.887Z,8.50
2024-05-09T20:28:22.799Z,7.90
2024-05-09T20:30:50.248Z,6.90
2024-05-09T20:33:21.550Z,9.93
2024-05-09T20:35:48.779Z,8.27
2024-05-09T20:38:18.614Z,6.70
2024-05-09T20:40:48.612Z,10.83
2024-05-09T20:43:23.184Z,10.03
2024-05-09T20:45:50.432Z,8.57
2024-05-09T20:48:20.648Z,9.87
2024-05-09T20:50:48.011Z,8.40
2024-05-09T20:53:18.977Z,7.83
2024-05-09T20:55:47.701Z,8.53
2024-05-09T20:58:20.723Z,7.30
2024-05-09T21:00:48.102Z,6.97
2024-05-09T21:03:18.564Z,8.33
2024-05-09T21:05:46.571Z,8.60
2024-05-09T21:08:17.174Z,8.67
2024-05-09T21:10:46.993Z,7.53
2024-05-09T21:13:17.007Z,6.43
2024-05-09T21:15:47.095Z,5.67
2024-05-09T21:18:17.013Z,5.77
2024-05-09T21:20:44.568Z,5.70
2024-05-09T21:23:14.409Z,6.43
2024-05-09T21:25:41.584Z,8.33
2024-05-09T21:28:11.517Z,6.60
2024-05-09T21:30:42.282Z,9.80
2024-05-09T21:33:17.145Z,6.87
2024-05-09T21:35:44.979Z,6.67
2024-05-09T21:38:16.345Z,9.13
2024-05-09T21:40:44.229Z,7.27
2024-05-09T21:43:17.688Z,7.00
2024-05-09T21:45:45.350Z,7.40
2024-05-09T21:48:18.600Z,7.80
2024-05-09T21:50:48.100Z,9.70
2024-05-09T21:53:18.988Z,8.37
2024-05-09T21:55:47.158Z,7.37
2024-05-09T21:58:17.681Z,8.17
2024-05-09T22:00:46.458Z,6.30
2024-05-09T22:03:19.500Z,6.43
2024-05-09T22:05:46.820Z,8.17
2024-05-09T22:08:16.874Z,8.67
2024-05-09T22:10:44.524Z,8.33
2024-05-09T22:13:19.289Z,7.00
2024-05-09T22:15:46.761Z,6.60
2024-05-09T22:18:19.493Z,8.17
2024-05-09T22:20:47.196Z,8.13
2024-05-09T22:23:20.255Z,6.50
2024-05-09T22:25:48.369Z,5.83
2024-05-09T22:28:18.609Z,5.87
2024-05-09T22:30:50.694Z,6.77
2024-05-09T22:33:23.489Z,6.27
2024-05-09T22:35:51.758Z,7.23
2024-05-09T22:38:22.950Z,7.13
2024-05-09T22:40:50.310Z,7.60
2024-05-09T22:43:25.736Z,10.53
2024-05-09T22:45:56.295Z,8.10
2024-05-09T22:52:18.451Z,9.03
2024-05-09T22:54:45.627Z,11.50
2024-05-09T22:57:15.404Z,9.57
2024-05-09T22:59:44.190Z,11.93
2024-05-09T23:02:18.190Z,11.33
2024-05-09T23:04:48.568Z,11.10
2024-05-09T23:07:21.175Z,12.73
2024-05-09T23:09:48.430Z,14.80
2024-05-09T23:12:18.686Z,16.70
2024-05-09T23:14:45.836Z,16.33
2024-05-09T23:17:19.581Z,14.57
2024-05-09T23:19:48.202Z,17.90
2024-05-09T23:22:20.885Z,17.63
2024-05-09T23:24:48.240Z,20.77
2024-05-09T23:27:20.922Z,20.03
2024-05-09T23:29:48.082Z,18.47
2024-05-09T23:32:18.488Z,21.03
2024-05-09T23:34:48.087Z,19.57
2024-05-09T23:37:20.902Z,16.87
2024-05-09T23:39:48.213Z,15.53
2024-05-09T23:42:17.960Z,17.77
2024-05-09T23:44:45.115Z,15.80
2024-05-09T23:47:17.968Z,16.60
2024-05-09T23:49:45.339Z,13.07
2024-05-09T23:52:15.325Z,13.63
2024-05-09T23:54:49.394Z,12.27
2024-05-09T23:57:19.471Z,14.50
2024-05-09T23:59:49.757Z,10.60
